Mayo, Canada
Current Conditions -  °F | °C
As of 4:00 AM on Monday 24 Nov 2014 (Local Time) from CYMA Reporting Station
Overcast Overcast  
Wind Chill: -3°   Ceiling: 2500
Heat Index:   Visibility: 20mi
Dew Point:   Wind: 6mph
Humidity: 72%   Direction: 360°N
Pressure: 29.84"   Gusts: NA
Location:  63.6°N, 135.88°W
Report Text: CYMA 241200Z 36005KT 20SM OVC025 M14/M18 A2984 RMK SC8 CLIMAT-13.3/-13.9/0.0 SOG 8 SLP155
Loading
Personal Weather Stations






























Interactive Weather Map New forecast layout! Learn more

10-Day Weather Forecast

Advertisements
Track Severe Weather on mobile